< < Back
Terminal Aerodrome Forecast


Current Version              Previous Versions:   1  2  3  4  5  6  7  8  9  

Terminal Aerodrome Forecast

598
FTUS42 KFFC 300751 AAA
TAFMCN
TAF AMD
KMCN 300751Z 3008/0106 22005KT P6SM SCT070 SCT250
     FM300900 VRB03KT P6SM SCT004 SCT120
      TEMPO 3010/3012 4SM BR BKN004
     FM301400 20007KT P6SM SCT050 PROB30 3019/3023 VRB10G25KT 4SM
      TSRA BKN035CB
     FM010100 19004KT P6SM SCT100 BKN250=

Latest METAR

818
SAUS80 KWBC 302300 RRD
MTRMCN
METAR KMCN 302253Z 22005KT 10SM BKN100 28/19 A2996 RMK AO2 SLP142
T02780194


USA.gov is the U.S. government's official web portal to all federal, state and local government web resources and services.